createdAt,value
2022-08-21T00:01:55.367Z,66.43
2022-08-21T00:04:29.459Z,66.43
2022-08-21T00:06:59.597Z,65.87
2022-08-21T00:09:27.182Z,66.30
2022-08-21T00:11:54.537Z,65.81
2022-08-21T00:14:22.145Z,66.43
2022-08-21T00:16:49.480Z,66.21
2022-08-21T00:19:17.119Z,65.69
2022-08-21T00:21:44.772Z,67.43
2022-08-21T00:24:13.121Z,67.28
2022-08-21T00:26:40.496Z,67.31
2022-08-21T00:29:07.999Z,67.22
2022-08-21T00:31:35.340Z,67.78
2022-08-21T00:34:03.358Z,67.62
2022-08-21T00:36:31.167Z,67.86
2022-08-21T00:38:58.664Z,67.55
2022-08-21T00:41:37.346Z,66.88
2022-08-21T00:44:14.764Z,66.86
2022-08-21T00:46:44.194Z,66.81
2022-08-21T00:49:14.071Z,66.53
2022-08-21T00:51:59.105Z,66.85
2022-08-21T00:54:30.720Z,66.24
2022-08-21T00:57:08.498Z,66.24
2022-08-21T00:59:41.199Z,66.58
2022-08-21T01:02:10.986Z,66.28
2022-08-21T01:04:38.508Z,66.45
2022-08-21T01:07:06.452Z,66.47
2022-08-21T01:09:34.165Z,65.89
2022-08-21T01:12:01.945Z,66.04
2022-08-21T01:14:29.669Z,66.75
2022-08-21T01:17:00.133Z,66.42
2022-08-21T01:19:28.565Z,66.60
2022-08-21T01:21:56.532Z,66.38
2022-08-21T01:24:25.347Z,66.17
2022-08-21T01:26:53.556Z,66.57
2022-08-21T01:29:45.309Z,66.36
2022-08-21T01:32:18.415Z,66.83
2022-08-21T01:34:51.535Z,67.52
2022-08-21T01:37:22.554Z,67.79
2022-08-21T01:39:50.333Z,68.41
2022-08-21T01:42:18.236Z,67.46
2022-08-21T01:44:45.909Z,67.43
2022-08-21T01:47:16.508Z,68.01
2022-08-21T01:49:46.216Z,68.04
2022-08-21T01:52:13.933Z,68.57
2022-08-21T01:54:42.726Z,68.12
2022-08-21T01:57:11.288Z,68.94
2022-08-21T01:59:38.709Z,68.48
2022-08-21T02:02:06.858Z,69.69
2022-08-21T02:04:38.419Z,69.13
2022-08-21T02:07:07.103Z,69.33
2022-08-21T02:09:37.621Z,69.71
2022-08-21T02:12:08.029Z,69.62
2022-08-21T02:14:35.345Z,68.88
2022-08-21T02:17:09.501Z,68.42
2022-08-21T02:19:40.714Z,69.04
2022-08-21T02:22:13.477Z,68.80
2022-08-21T02:24:53.839Z,69.75
2022-08-21T02:27:27.431Z,70.10
2022-08-21T02:29:58.845Z,70.63
2022-08-21T02:32:27.260Z,70.36
2022-08-21T02:34:54.908Z,70.15
2022-08-21T02:37:24.016Z,71.51
2022-08-21T02:39:51.694Z,71.62
2022-08-21T02:42:19.174Z,72.10
2022-08-21T02:44:46.551Z,71.53
2022-08-21T02:47:15.280Z,72.49
2022-08-21T02:49:42.734Z,72.75
2022-08-21T02:52:10.299Z,72.12
2022-08-21T02:54:37.623Z,72.98
2022-08-21T02:57:05.067Z,72.99
2022-08-21T02:59:33.138Z,73.47
2022-08-21T03:02:00.550Z,73.66
2022-08-21T03:04:27.915Z,73.84
2022-08-21T03:06:55.232Z,74.73
2022-08-21T03:09:22.540Z,75.33
2022-08-21T03:11:49.954Z,75.26
2022-08-21T03:14:17.276Z,74.67
2022-08-21T03:16:45.404Z,74.74
2022-08-21T03:19:14.035Z,75.12
2022-08-21T03:21:41.339Z,75.25
2022-08-21T03:24:10.959Z,74.86
2022-08-21T03:26:38.636Z,75.44
2022-08-21T03:29:08.733Z,74.53
2022-08-21T03:31:36.329Z,75.19
2022-08-21T03:34:03.780Z,74.85
2022-08-21T03:36:31.137Z,75.02
2022-08-21T03:38:58.665Z,75.31
2022-08-21T03:41:25.961Z,74.92
2022-08-21T03:43:53.289Z,75.31
2022-08-21T03:46:20.595Z,75.15
2022-08-21T03:48:48.053Z,74.66
2022-08-21T03:51:16.497Z,75.16
2022-08-21T03:53:43.808Z,76.10
2022-08-21T03:56:11.204Z,75.52
2022-08-21T03:58:39.331Z,74.88
2022-08-21T04:01:07.428Z,75.06
2022-08-21T04:03:38.371Z,75.78
2022-08-21T04:06:07.049Z,75.19
2022-08-21T04:08:34.959Z,74.81
2022-08-21T04:11:02.615Z,74.87
2022-08-21T04:13:30.764Z,75.11
2022-08-21T04:15:59.559Z,75.67
2022-08-21T04:18:27.057Z,75.73
2022-08-21T04:20:57.097Z,74.93
2022-08-21T04:23:26.801Z,75.32
2022-08-21T04:25:57.569Z,76.36
2022-08-21T04:28:29.261Z,75.24
2022-08-21T04:30:59.203Z,75.31
2022-08-21T04:33:30.192Z,75.83
2022-08-21T04:35:57.514Z,75.67
2022-08-21T04:38:24.872Z,75.91
2022-08-21T04:40:53.828Z,76.45
2022-08-21T04:43:24.176Z,75.55
2022-08-21T04:45:53.381Z,75.82
2022-08-21T04:48:27.796Z,75.60
2022-08-21T04:51:20.991Z,76.01
2022-08-21T04:54:09.744Z,76.20
2022-08-21T04:57:00.441Z,76.60
2022-08-21T04:59:47.667Z,75.95
2022-08-21T05:02:15.501Z,75.50
2022-08-21T05:04:55.243Z,75.63
2022-08-21T05:07:41.902Z,75.80
2022-08-21T05:10:12.643Z,75.61
2022-08-21T05:12:43.575Z,75.76
2022-08-21T05:15:14.520Z,76.43
2022-08-21T05:17:42.878Z,75.54
2022-08-21T05:20:15.691Z,76.14
2022-08-21T05:22:43.566Z,76.45
2022-08-21T05:25:12.472Z,75.59
2022-08-21T05:27:40.640Z,76.34
2022-08-21T05:30:12.091Z,75.99
2022-08-21T05:32:39.467Z,75.91
2022-08-21T05:35:09.431Z,75.67
2022-08-21T05:37:37.097Z,75.81
2022-08-21T05:40:22.468Z,75.32
2022-08-21T05:42:56.094Z,75.24
2022-08-21T05:45:42.995Z,75.99
2022-08-21T05:48:22.093Z,75.41
2022-08-21T05:50:53.017Z,75.73
2022-08-21T05:53:24.279Z,75.56
2022-08-21T05:55:53.049Z,75.31
2022-08-21T05:58:23.882Z,75.26
2022-08-21T06:00:53.758Z,75.44
2022-08-21T06:03:33.008Z,74.88
2022-08-21T06:06:01.065Z,74.31
2022-08-21T06:08:29.504Z,74.25
2022-08-21T06:11:01.594Z,74.31
2022-08-21T06:13:29.905Z,74.38
2022-08-21T06:16:17.127Z,74.57
2022-08-21T06:18:46.490Z,74.31
2022-08-21T06:21:14.927Z,74.35
2022-08-21T06:23:43.887Z,74.40
2022-08-21T06:26:14.548Z,74.45
2022-08-21T06:28:44.250Z,74.64
2022-08-21T06:31:24.775Z,73.93
2022-08-21T06:33:53.361Z,74.51
2022-08-21T06:36:23.463Z,73.99
2022-08-21T06:38:51.966Z,73.89
2022-08-21T06:41:24.098Z,74.26
2022-08-21T06:43:55.793Z,73.44
2022-08-21T06:46:26.998Z,73.38
2022-08-21T06:48:54.658Z,73.50
2022-08-21T06:51:22.956Z,73.81
2022-08-21T06:53:50.587Z,74.22
2022-08-21T06:56:18.252Z,73.91
2022-08-21T06:58:45.857Z,73.72
2022-08-21T07:01:13.324Z,73.46
2022-08-21T07:03:44.510Z,73.24
2022-08-21T07:06:13.017Z,73.26
2022-08-21T07:08:40.789Z,73.41
2022-08-21T07:11:22.419Z,72.89
2022-08-21T07:13:53.553Z,73.44
2022-08-21T07:16:24.594Z,73.03
2022-08-21T07:18:51.913Z,72.86
2022-08-21T07:21:25.189Z,72.87
2022-08-21T07:23:53.856Z,73.23
2022-08-21T07:26:24.515Z,73.25
2022-08-21T07:28:52.700Z,72.93
2022-08-21T07:31:25.071Z,71.26
2022-08-21T07:33:53.149Z,71.61
2022-08-21T07:36:20.968Z,71.23
2022-08-21T07:38:49.043Z,71.87
2022-08-21T07:41:30.014Z,71.91
2022-08-21T07:43:59.108Z,71.90
2022-08-21T07:46:27.908Z,71.56
2022-08-21T07:48:55.752Z,71.55
2022-08-21T07:51:28.969Z,71.21
2022-08-21T07:54:00.088Z,70.78
2022-08-21T07:56:31.369Z,70.14
2022-08-21T07:58:58.841Z,69.66
2022-08-21T08:01:26.641Z,69.89
2022-08-21T08:03:54.010Z,67.91
2022-08-21T08:06:21.353Z,67.33
2022-08-21T08:08:48.773Z,67.04
2022-08-21T08:11:17.193Z,67.30
2022-08-21T08:13:52.232Z,66.65
2022-08-21T08:16:21.704Z,66.53
2022-08-21T08:18:49.081Z,66.62
2022-08-21T08:21:17.213Z,64.30
2022-08-21T08:23:46.137Z,64.40
2022-08-21T08:26:13.633Z,64.78
2022-08-21T08:28:40.984Z,63.89
2022-08-21T08:31:08.296Z,63.90
2022-08-21T08:33:35.604Z,63.75
2022-08-21T08:36:08.129Z,62.91
2022-08-21T08:38:35.960Z,62.62
2022-08-21T08:41:23.681Z,62.20
2022-08-21T08:43:59.624Z,62.19
2022-08-21T08:46:51.472Z,61.73
2022-08-21T08:49:53.225Z,61.63
2022-08-21T08:52:51.061Z,61.18
2022-08-21T08:55:37.776Z,61.34
2022-08-21T08:58:05.368Z,60.80
2022-08-21T09:00:34.192Z,61.05
2022-08-21T09:03:05.501Z,61.66
2022-08-21T09:05:54.805Z,60.44
2022-08-21T09:09:06.283Z,60.63
2022-08-21T09:12:45.609Z,60.19
2022-08-21T09:16:00.301Z,60.06
2022-08-21T09:19:24.861Z,59.80
2022-08-21T09:22:26.160Z,59.27
2022-08-21T09:25:33.480Z,59.05
2022-08-21T09:28:00.928Z,58.93
2022-08-21T09:30:33.701Z,58.73
2022-08-21T09:33:01.396Z,58.43
2022-08-21T09:35:28.947Z,58.35
2022-08-21T09:38:09.083Z,58.27
2022-08-21T09:40:48.524Z,56.36
2022-08-21T09:43:25.843Z,57.96
2022-08-21T09:46:23.743Z,56.55
2022-08-21T09:48:58.207Z,57.79
2022-08-21T09:51:37.168Z,57.71
2022-08-21T09:54:10.070Z,57.98
2022-08-21T09:57:34.556Z,56.13
2022-08-21T10:00:32.173Z,56.43
2022-08-21T10:03:28.969Z,54.66
2022-08-21T10:06:09.350Z,55.81
2022-08-21T10:08:41.851Z,56.13
2022-08-21T10:11:18.195Z,55.09
2022-08-21T10:14:33.256Z,55.88
2022-08-21T10:18:10.688Z,54.13
2022-08-21T10:21:12.037Z,53.07
2022-08-21T10:24:31.668Z,53.24
2022-08-21T10:27:56.081Z,52.94
2022-08-21T10:31:08.960Z,55.49
2022-08-21T10:34:29.075Z,54.13
2022-08-21T10:37:26.761Z,54.15
2022-08-21T10:40:46.227Z,51.66
2022-08-21T10:43:46.998Z,50.90
2022-08-21T10:47:30.512Z,50.52
2022-08-21T10:50:17.385Z,51.94
2022-08-21T10:53:54.168Z,52.11
2022-08-21T10:56:29.989Z,51.69
2022-08-21T10:59:56.587Z,50.90
2022-08-21T11:02:43.580Z,49.09
2022-08-21T11:05:59.079Z,48.76
2022-08-21T11:08:47.794Z,51.85
2022-08-21T11:11:59.546Z,50.88
2022-08-21T11:15:28.922Z,51.31
2022-08-21T11:18:28.107Z,50.12
2022-08-21T11:21:34.563Z,46.46
2022-08-21T11:25:01.551Z,49.63
2022-08-21T11:28:17.588Z,47.92
2022-08-21T11:31:18.268Z,48.69
2022-08-21T11:34:20.911Z,50.02
2022-08-21T11:37:59.386Z,48.93
2022-08-21T11:41:43.024Z,46.68
2022-08-21T11:44:41.161Z,44.87
2022-08-21T11:48:13.325Z,46.61
2022-08-21T11:50:45.562Z,48.83
2022-08-21T11:53:40.154Z,46.91
2022-08-21T11:56:23.660Z,49.15
2022-08-21T11:59:01.594Z,48.73
2022-08-21T12:01:41.687Z,48.87
2022-08-21T12:04:30.736Z,48.92
2022-08-21T12:07:29.507Z,49.35
2022-08-21T12:10:00.551Z,48.89
2022-08-21T12:12:40.221Z,46.56
2022-08-21T12:15:28.536Z,43.72
2022-08-21T12:18:34.105Z,44.03
2022-08-21T12:21:23.643Z,43.94
2022-08-21T12:24:15.806Z,43.93
2022-08-21T12:27:15.140Z,41.91
2022-08-21T12:30:19.913Z,40.28
2022-08-21T12:33:33.130Z,39.91
2022-08-21T12:36:46.572Z,40.43
2022-08-21T12:39:26.231Z,38.36
2022-08-21T12:42:25.108Z,40.55
2022-08-21T12:45:18.471Z,40.14
2022-08-21T12:48:00.859Z,38.12
2022-08-21T12:51:16.252Z,37.87
2022-08-21T12:53:58.896Z,36.82
2022-08-21T12:56:33.233Z,37.46
2022-08-21T12:59:13.131Z,36.08
2022-08-21T13:01:52.522Z,34.63
2022-08-21T13:04:41.736Z,34.68
2022-08-21T13:07:17.063Z,35.36
2022-08-21T13:10:08.351Z,33.57
2022-08-21T13:12:36.963Z,33.61
2022-08-21T13:15:08.951Z,33.96
2022-08-21T13:17:50.667Z,33.20
2022-08-21T13:20:29.277Z,34.31
2022-08-21T13:22:56.732Z,33.56
2022-08-21T13:25:36.547Z,33.54
2022-08-21T13:28:15.811Z,32.55
2022-08-21T13:30:56.812Z,33.65
2022-08-21T13:33:35.197Z,33.05
2022-08-21T13:36:27.072Z,31.70
2022-08-21T13:38:55.652Z,31.28
2022-08-21T13:41:46.915Z,32.38
2022-08-21T13:44:36.815Z,31.43
2022-08-21T13:47:07.301Z,31.22
2022-08-21T13:49:47.087Z,32.24
2022-08-21T13:52:27.703Z,30.86
2022-08-21T13:55:08.873Z,29.60
2022-08-21T13:57:38.404Z,30.46
2022-08-21T14:00:28.692Z,29.60
2022-08-21T14:03:12.497Z,30.04
2022-08-21T14:05:47.246Z,29.92
2022-08-21T14:08:38.393Z,28.13
2022-08-21T14:11:10.571Z,30.48
2022-08-21T14:13:58.814Z,28.19
2022-08-21T14:16:47.481Z,28.33
2022-08-21T14:19:41.897Z,28.42
2022-08-21T14:22:44.470Z,29.17
2022-08-21T14:25:20.941Z,28.30
2022-08-21T14:28:19.563Z,27.82
2022-08-21T14:30:51.375Z,29.08
2022-08-21T14:33:32.796Z,26.95
2022-08-21T14:36:02.795Z,27.56
2022-08-21T14:38:30.772Z,27.36
2022-08-21T14:41:22.586Z,26.69
2022-08-21T14:43:59.793Z,27.54
2022-08-21T14:46:35.113Z,26.68
2022-08-21T14:49:04.688Z,25.11
2022-08-21T14:51:32.257Z,26.00
2022-08-21T14:53:59.669Z,25.58
2022-08-21T14:56:27.457Z,25.41
2022-08-21T14:59:06.820Z,26.07
2022-08-21T15:01:39.668Z,26.24
2022-08-21T15:04:07.818Z,27.41
2022-08-21T15:06:35.217Z,26.30
2022-08-21T15:09:04.985Z,26.04
2022-08-21T15:11:42.540Z,27.11
2022-08-21T15:14:22.708Z,27.32
2022-08-21T15:16:51.420Z,27.33
2022-08-21T15:19:19.710Z,27.51
2022-08-21T15:21:47.347Z,27.64
2022-08-21T15:24:14.824Z,27.35
2022-08-21T15:26:42.567Z,28.36
2022-08-21T15:29:10.281Z,26.48
2022-08-21T15:31:50.354Z,27.72
2022-08-21T15:34:18.332Z,27.89
2022-08-21T15:36:45.811Z,26.90
2022-08-21T15:39:14.198Z,27.05
2022-08-21T15:41:41.768Z,29.55
2022-08-21T15:44:13.340Z,27.12
2022-08-21T15:46:42.255Z,27.73
2022-08-21T15:49:09.799Z,27.25
2022-08-21T15:51:38.339Z,27.23
2022-08-21T15:54:10.993Z,28.16
2022-08-21T15:56:43.372Z,28.08
2022-08-21T15:59:22.765Z,29.00
2022-08-21T16:01:53.791Z,29.02
2022-08-21T16:04:28.411Z,28.71
2022-08-21T16:07:01.000Z,28.53
2022-08-21T16:09:29.301Z,29.13
2022-08-21T16:11:56.803Z,28.14
2022-08-21T16:14:24.176Z,27.66
2022-08-21T16:16:52.668Z,28.03
2022-08-21T16:19:21.691Z,27.45
2022-08-21T16:21:49.011Z,29.77
2022-08-21T16:24:16.360Z,30.05
2022-08-21T16:26:43.855Z,30.92
2022-08-21T16:29:11.629Z,30.71
2022-08-21T16:31:39.838Z,28.59
2022-08-21T16:34:07.577Z,28.65
2022-08-21T16:36:34.896Z,29.48
2022-08-21T16:39:02.608Z,29.44
2022-08-21T16:41:35.307Z,29.90
2022-08-21T16:44:05.785Z,30.32
2022-08-21T16:46:40.936Z,29.10
2022-08-21T16:49:10.067Z,29.71
2022-08-21T16:51:38.281Z,29.41
2022-08-21T16:54:05.758Z,28.69
2022-08-21T16:56:33.780Z,30.28
2022-08-21T16:59:01.980Z,29.58
2022-08-21T17:01:35.010Z,30.12
2022-08-21T17:04:03.313Z,29.77
2022-08-21T17:06:31.264Z,31.40
2022-08-21T17:09:01.122Z,29.82
2022-08-21T17:11:45.512Z,29.08
2022-08-21T17:14:22.334Z,30.25
2022-08-21T17:16:56.718Z,29.23
2022-08-21T17:19:24.444Z,30.49
2022-08-21T17:21:51.815Z,31.78
2022-08-21T17:24:19.140Z,31.25
2022-08-21T17:26:47.825Z,31.86
2022-08-21T17:29:16.098Z,32.24
2022-08-21T17:31:44.572Z,32.78
2022-08-21T17:34:13.000Z,33.04
2022-08-21T17:36:40.319Z,34.00
2022-08-21T17:39:07.856Z,34.21
2022-08-21T17:41:35.578Z,34.09
2022-08-21T17:44:11.703Z,33.48
2022-08-21T17:46:42.693Z,32.67
2022-08-21T17:49:11.717Z,34.45
2022-08-21T17:51:43.496Z,33.29
2022-08-21T17:54:10.967Z,34.12
2022-08-21T17:56:42.255Z,34.62
2022-08-21T17:59:10.626Z,34.89
2022-08-21T18:01:46.797Z,35.15
2022-08-21T18:04:15.499Z,35.11
2022-08-21T18:06:44.792Z,35.45
2022-08-21T18:09:13.560Z,36.05
2022-08-21T18:11:43.679Z,36.72
2022-08-21T18:14:12.181Z,36.61
2022-08-21T18:16:39.757Z,36.98
2022-08-21T18:19:16.285Z,37.25
2022-08-21T18:21:44.329Z,38.07
2022-08-21T18:24:11.729Z,38.43
2022-08-21T18:26:41.750Z,39.01
2022-08-21T18:29:16.831Z,39.18
2022-08-21T18:31:46.539Z,39.90
2022-08-21T18:34:43.043Z,41.63
2022-08-21T18:37:10.570Z,40.89
2022-08-21T18:39:38.235Z,40.92
2022-08-21T18:42:15.237Z,41.23
2022-08-21T18:44:49.094Z,41.45
2022-08-21T18:47:33.583Z,41.51
2022-08-21T18:50:01.422Z,41.18
2022-08-21T18:52:30.665Z,41.39
2022-08-21T18:54:58.118Z,42.95
2022-08-21T18:57:34.118Z,41.89
2022-08-21T19:00:08.893Z,42.93
2022-08-21T19:02:36.297Z,42.72
2022-08-21T19:05:06.304Z,43.72
2022-08-21T19:07:34.129Z,43.89
2022-08-21T19:10:27.715Z,43.77
2022-08-21T19:12:50.262Z,42.29
2022-08-21T19:15:21.946Z,42.59
2022-08-21T19:17:53.344Z,43.13
2022-08-21T19:20:32.691Z,43.54
2022-08-21T19:23:01.356Z,42.32
2022-08-21T19:25:33.322Z,42.83
2022-08-21T19:28:10.980Z,41.70
2022-08-21T19:31:23.667Z,42.16
2022-08-21T19:34:08.437Z,43.48
2022-08-21T19:36:35.909Z,44.18
2022-08-21T19:39:08.203Z,44.59
2022-08-21T19:41:42.705Z,44.26
2022-08-21T19:44:20.767Z,44.96
2022-08-21T19:46:51.130Z,45.06
2022-08-21T19:49:29.062Z,45.64
2022-08-21T19:52:13.019Z,45.96
2022-08-21T19:54:46.362Z,46.12
2022-08-21T19:57:15.008Z,46.09
2022-08-21T19:59:44.204Z,46.66
2022-08-21T20:02:17.333Z,47.22
2022-08-21T20:04:53.742Z,47.57
2022-08-21T20:07:26.925Z,47.89
2022-08-21T20:09:56.569Z,47.92
2022-08-21T20:12:25.101Z,47.83
2022-08-21T20:14:53.139Z,48.54
2022-08-21T20:17:21.218Z,48.24
2022-08-21T20:19:54.400Z,47.87
2022-08-21T20:22:24.093Z,48.05
2022-08-21T20:24:52.715Z,47.87
2022-08-21T20:30:16.356Z,48.08
2022-08-21T20:32:50.381Z,47.41
2022-08-21T20:35:18.752Z,47.43
2022-08-21T20:37:46.768Z,47.31
2022-08-21T20:40:32.792Z,47.21
2022-08-21T20:43:02.574Z,47.54
2022-08-21T20:45:35.372Z,47.14
2022-08-21T20:48:24.135Z,48.13
2022-08-21T20:51:24.195Z,47.52
2022-08-21T20:54:23.797Z,47.85
2022-08-21T20:57:22.760Z,47.92
2022-08-21T21:00:14.646Z,47.76
2022-08-21T21:04:05.062Z,48.23
2022-08-21T21:06:39.051Z,48.38
2022-08-21T21:09:40.168Z,48.15
2022-08-21T21:12:31.253Z,48.15
2022-08-21T21:15:14.084Z,48.22
2022-08-21T21:18:29.601Z,47.73
2022-08-21T21:21:51.691Z,48.06
2022-08-21T21:25:11.372Z,49.02
2022-08-21T21:28:08.472Z,48.15
2022-08-21T21:30:51.967Z,48.92
2022-08-21T21:33:25.624Z,49.13
2022-08-21T21:36:28.431Z,48.80
2022-08-21T21:39:52.682Z,48.92
2022-08-21T21:43:16.461Z,49.59
2022-08-21T21:46:39.208Z,49.69
2022-08-21T21:50:29.748Z,48.88
2022-08-21T21:53:12.587Z,50.08
2022-08-21T21:56:40.456Z,48.90
2022-08-21T21:59:58.961Z,49.64
2022-08-21T22:03:25.568Z,49.06
2022-08-21T22:06:13.037Z,49.71
2022-08-21T22:09:03.534Z,49.78
2022-08-21T22:12:03.633Z,49.07
2022-08-21T22:14:40.863Z,49.55
2022-08-21T22:17:33.325Z,49.57
2022-08-21T22:20:40.617Z,49.89
2022-08-21T22:23:18.812Z,50.25
2022-08-21T22:25:55.793Z,51.36
2022-08-21T22:28:27.069Z,51.18
2022-08-21T22:31:18.122Z,50.61
2022-08-21T22:34:19.461Z,50.44
2022-08-21T22:37:01.317Z,50.47
2022-08-21T22:39:41.199Z,51.17
2022-08-21T22:42:27.418Z,51.82
2022-08-21T22:45:12.080Z,51.91
2022-08-21T22:47:47.399Z,52.82
2022-08-21T22:50:26.961Z,53.24
2022-08-21T22:53:05.972Z,52.08
2022-08-21T22:55:54.888Z,52.85
2022-08-21T22:58:58.800Z,52.30
2022-08-21T23:01:28.854Z,51.48
2022-08-21T23:04:12.212Z,51.40
2022-08-21T23:06:59.084Z,51.92
2022-08-21T23:09:48.329Z,51.38
2022-08-21T23:12:43.765Z,51.44
2022-08-21T23:15:18.231Z,52.53
2022-08-21T23:18:26.383Z,52.05
2022-08-21T23:21:57.885Z,52.69
2022-08-21T23:25:29.107Z,51.88
2022-08-21T23:28:54.440Z,53.46
2022-08-21T23:32:24.919Z,53.95
2022-08-21T23:36:22.358Z,52.61
2022-08-21T23:39:28.735Z,53.29
2022-08-21T23:43:09.280Z,53.34
2022-08-21T23:46:45.457Z,53.56
2022-08-21T23:50:33.986Z,52.69
2022-08-21T23:53:28.210Z,53.20
2022-08-21T23:57:02.639Z,53.82
